createdAt,value
2019-03-19T00:03:52.257Z,100706.70
2019-03-19T00:08:55.713Z,100715.62
2019-03-19T00:13:59.171Z,100714.07
2019-03-19T00:19:02.624Z,100715.45
2019-03-19T00:24:06.081Z,100725.16
2019-03-19T00:29:09.536Z,100722.20
2019-03-19T00:34:12.997Z,100733.30
2019-03-19T00:39:16.451Z,100742.41
2019-03-19T00:44:20.124Z,100740.83
2019-03-19T00:49:23.580Z,100738.64
2019-03-19T00:54:27.042Z,100744.00
2019-03-19T00:59:30.510Z,100747.56
2019-03-19T01:04:33.956Z,100739.64
2019-03-19T01:09:37.418Z,100745.19
2019-03-19T01:14:40.880Z,100756.88
2019-03-19T01:19:44.340Z,100756.69
2019-03-19T01:24:47.802Z,100751.73
2019-03-19T01:29:51.277Z,100756.69
2019-03-19T01:34:54.724Z,100765.61
2019-03-19T01:39:58.190Z,100759.30
2019-03-19T01:45:01.650Z,100757.12
2019-03-19T01:50:08.186Z,100759.11
2019-03-19T01:55:12.881Z,100766.23
2019-03-19T02:00:18.283Z,100759.11
2019-03-19T02:05:21.741Z,100760.89
2019-03-19T02:10:25.194Z,100767.04
2019-03-19T02:15:28.656Z,100790.02
2019-03-19T02:20:32.116Z,100781.50
2019-03-19T02:25:35.576Z,100790.22
2019-03-19T02:30:39.044Z,100788.23
2019-03-19T02:35:42.590Z,100787.64
2019-03-19T02:40:46.037Z,100793.19
2019-03-19T02:45:49.495Z,100797.95
2019-03-19T02:50:52.957Z,100815.38
2019-03-19T02:55:56.415Z,100815.78
2019-03-19T03:00:59.880Z,100821.33
2019-03-19T03:06:03.335Z,100828.27
2019-03-19T03:11:06.789Z,100819.75
2019-03-19T03:16:10.248Z,100825.29
2019-03-19T03:21:13.715Z,100835.79
2019-03-19T03:26:17.164Z,100844.54
2019-03-19T03:31:20.628Z,100851.28
2019-03-19T03:36:24.084Z,100859.80
2019-03-19T03:41:27.555Z,100858.21
2019-03-19T03:46:31.006Z,100862.38
2019-03-19T03:51:34.452Z,100874.66
2019-03-19T03:56:37.908Z,100879.61
2019-03-19T04:01:41.364Z,100882.97
2019-03-19T04:06:44.822Z,100882.78
2019-03-19T04:11:48.285Z,100903.58
2019-03-19T04:16:51.758Z,100897.23
2019-03-19T04:21:55.201Z,100901.59
2019-03-19T04:26:58.663Z,100911.11
2019-03-19T04:32:02.135Z,100915.66
2019-03-19T04:37:05.609Z,100911.70
2019-03-19T04:42:09.080Z,100914.27
2019-03-19T04:47:12.552Z,100914.27
2019-03-19T04:52:16.029Z,100922.59
2019-03-19T04:57:26.626Z,100918.44
2019-03-19T05:02:24.700Z,100921.44
2019-03-19T05:07:28.196Z,100929.33
2019-03-19T05:12:31.671Z,100935.27
2019-03-19T05:17:35.147Z,100946.36
2019-03-19T05:22:38.612Z,100956.47
2019-03-19T05:27:42.082Z,100967.16
2019-03-19T05:32:45.528Z,100950.38
2019-03-19T05:37:48.990Z,100950.38
2019-03-19T05:42:52.451Z,100960.85
2019-03-19T05:47:55.914Z,100966.80
2019-03-19T05:52:59.379Z,100973.92
2019-03-19T05:58:02.866Z,100984.03
2019-03-19T06:03:06.311Z,100989.37
2019-03-19T06:08:09.769Z,100992.94
2019-03-19T06:13:13.230Z,100997.49
2019-03-19T06:18:16.688Z,101005.22
2019-03-19T06:23:20.151Z,101020.46
2019-03-19T06:28:23.615Z,101018.08
2019-03-19T06:33:27.075Z,101023.43
2019-03-19T06:38:30.540Z,101031.16
2019-03-19T06:43:33.997Z,101038.68
2019-03-19T06:48:37.459Z,101049.01
2019-03-19T06:53:40.913Z,101047.20
2019-03-19T06:58:44.376Z,101054.92
2019-03-19T07:03:47.839Z,101052.74
2019-03-19T07:08:51.300Z,101047.59
2019-03-19T07:13:54.757Z,101061.66
2019-03-19T07:18:58.213Z,101060.28
2019-03-19T07:24:01.667Z,101063.64
2019-03-19T07:29:05.201Z,101069.39
2019-03-19T07:34:08.656Z,101071.77
2019-03-19T07:39:12.120Z,101086.02
2019-03-19T07:44:15.575Z,101079.68
2019-03-19T07:49:19.042Z,101083.25
2019-03-19T07:54:22.493Z,101082.45
2019-03-19T07:59:25.949Z,101091.37
2019-03-19T08:04:29.405Z,101104.07
2019-03-19T08:09:32.930Z,101106.25
2019-03-19T08:14:36.493Z,101118.30
2019-03-19T08:19:39.961Z,101126.53
2019-03-19T08:24:43.414Z,101138.69
2019-03-19T08:29:46.874Z,101139.73
2019-03-19T08:34:50.335Z,101146.89
2019-03-19T08:39:53.792Z,101145.98
2019-03-19T08:44:57.252Z,101145.98
2019-03-19T08:50:00.709Z,101139.48
2019-03-19T08:55:05.306Z,101144.03
2019-03-19T09:00:11.808Z,101142.45
2019-03-19T09:05:15.610Z,101144.45
2019-03-19T09:10:20.006Z,101149.41
2019-03-19T09:15:27.877Z,101158.70
2019-03-19T09:20:31.332Z,101164.45
2019-03-19T09:25:34.790Z,101168.81
2019-03-19T09:30:38.245Z,101171.58
2019-03-19T09:35:41.716Z,101175.73
2019-03-19T09:40:45.160Z,101186.41
2019-03-19T09:45:48.620Z,101212.73
2019-03-19T09:50:52.082Z,101221.47
2019-03-19T09:55:55.554Z,101223.03
2019-03-19T10:00:59.013Z,101220.46
2019-03-19T10:06:13.652Z,101225.03
2019-03-19T10:11:07.817Z,101217.51
2019-03-19T10:16:11.295Z,101228.20
2019-03-19T10:21:14.761Z,101223.46
2019-03-19T10:26:18.240Z,101235.34
2019-03-19T10:31:21.722Z,101241.27
2019-03-19T10:36:25.183Z,101232.74
2019-03-19T10:41:28.659Z,101237.90
2019-03-19T10:46:32.112Z,101234.54
2019-03-19T10:51:35.586Z,101230.37
2019-03-19T10:56:39.193Z,101226.02
2019-03-19T11:01:42.781Z,101235.92
2019-03-19T11:06:46.258Z,101237.52
2019-03-19T11:11:50.621Z,101227.02
2019-03-19T11:16:54.098Z,101227.61
2019-03-19T11:21:57.564Z,101223.45
2019-03-19T11:27:01.038Z,101210.39
2019-03-19T11:32:04.514Z,101207.02
2019-03-19T11:37:07.985Z,101221.47
2019-03-19T11:42:11.461Z,101218.91
2019-03-19T11:47:14.933Z,101218.91
2019-03-19T11:52:18.410Z,101222.88
2019-03-19T11:57:22.012Z,101230.80
2019-03-19T12:02:26.394Z,101225.83
2019-03-19T12:07:30.040Z,101230.41
2019-03-19T12:12:33.516Z,101242.67
2019-03-19T12:17:36.989Z,101250.81
2019-03-19T12:22:40.460Z,101256.77
2019-03-19T12:27:43.934Z,101249.44
2019-03-19T12:32:47.408Z,101262.50
2019-03-19T12:37:50.876Z,101258.14
2019-03-19T12:42:54.349Z,101255.56
2019-03-19T12:47:57.821Z,101253.80
2019-03-19T12:53:01.293Z,101251.84
2019-03-19T12:58:05.210Z,101261.55
2019-03-19T13:03:08.692Z,101268.69
2019-03-19T13:08:12.164Z,101274.61
2019-03-19T13:13:15.639Z,101275.61
2019-03-19T13:18:19.123Z,101271.05
2019-03-19T13:23:22.591Z,101270.28
2019-03-19T13:28:26.066Z,101276.20
2019-03-19T13:33:29.541Z,101268.27
2019-03-19T13:38:33.021Z,101269.19
2019-03-19T13:43:36.499Z,101265.52
2019-03-19T13:48:40.000Z,101260.97
2019-03-19T13:53:43.447Z,101249.41
2019-03-19T13:58:46.921Z,101255.68
2019-03-19T14:03:50.400Z,101263.11
2019-03-19T14:08:53.872Z,101266.31
2019-03-19T14:13:57.349Z,101266.36
2019-03-19T14:19:00.828Z,101268.59
2019-03-19T14:24:04.303Z,101264.03
2019-03-19T14:29:07.781Z,101267.00
2019-03-19T14:34:11.252Z,101277.70
2019-03-19T14:39:14.728Z,101287.02
2019-03-19T14:44:18.201Z,101285.25
2019-03-19T14:49:21.677Z,101295.33
2019-03-19T14:54:25.173Z,101283.45
2019-03-19T14:59:28.624Z,101281.67
2019-03-19T15:04:32.100Z,101275.92
2019-03-19T15:09:35.574Z,101278.91
2019-03-19T15:14:39.065Z,101283.66
2019-03-19T15:19:42.528Z,101291.37
2019-03-19T15:24:46.006Z,101290.79
2019-03-19T15:29:49.486Z,101302.67
2019-03-19T15:34:52.967Z,101302.67
2019-03-19T15:39:56.439Z,101306.83
2019-03-19T15:44:59.919Z,101302.88
2019-03-19T15:50:04.560Z,101309.22
2019-03-19T15:55:08.573Z,101304.27
2019-03-19T16:00:14.567Z,101318.92
2019-03-19T16:05:18.034Z,101320.10
2019-03-19T16:10:21.508Z,101321.11
2019-03-19T16:15:24.980Z,101326.65
2019-03-19T16:20:28.456Z,101326.05
2019-03-19T16:25:31.935Z,101346.44
2019-03-19T16:30:35.416Z,101351.22
2019-03-19T16:35:38.874Z,101357.52
2019-03-19T16:40:42.333Z,101351.98
2019-03-19T16:45:45.799Z,101358.91
2019-03-19T16:50:49.258Z,101361.09
2019-03-19T16:55:52.712Z,101367.84
2019-03-19T17:00:56.169Z,101371.00
2019-03-19T17:05:59.629Z,101362.69
2019-03-19T17:11:03.121Z,101374.78
2019-03-19T17:16:06.572Z,101381.70
2019-03-19T17:21:10.032Z,101392.03
2019-03-19T17:26:13.493Z,101397.98
2019-03-19T17:31:16.955Z,101400.58
2019-03-19T17:36:20.413Z,101409.69
2019-03-19T17:41:23.876Z,101412.91
2019-03-19T17:46:27.330Z,101418.66
2019-03-19T17:51:30.786Z,101423.20
2019-03-19T17:56:34.242Z,101431.73
2019-03-19T18:01:37.703Z,101439.28
2019-03-19T18:06:43.107Z,101439.28
2019-03-19T18:11:46.351Z,101448.57
2019-03-19T18:16:49.813Z,101456.89
2019-03-19T18:21:53.270Z,101459.08
2019-03-19T18:26:56.734Z,101464.03
2019-03-19T18:32:00.193Z,101466.63
2019-03-19T18:37:03.648Z,101463.66
2019-03-19T18:42:07.104Z,101476.13
2019-03-19T18:47:12.239Z,101472.77
2019-03-19T18:52:16.379Z,101479.88
2019-03-19T18:57:19.938Z,101485.63
2019-03-19T19:02:23.402Z,101485.63
2019-03-19T19:07:26.863Z,101493.75
2019-03-19T19:12:30.330Z,101498.12
2019-03-19T19:17:33.806Z,101504.08
2019-03-19T19:22:37.245Z,101511.40
2019-03-19T19:27:40.702Z,101508.83
2019-03-19T19:32:44.165Z,101512.61
2019-03-19T19:37:47.623Z,101519.75
2019-03-19T19:42:51.077Z,101521.14
2019-03-19T19:47:54.535Z,101535.22
2019-03-19T19:52:57.996Z,101530.64
2019-03-19T19:58:01.453Z,101539.76
2019-03-19T20:03:12.248Z,101545.10
2019-03-19T20:08:10.269Z,101554.64
2019-03-19T20:13:13.730Z,101550.65
2019-03-19T20:18:17.193Z,101560.36
2019-03-19T20:23:20.652Z,101560.36
2019-03-19T20:28:24.108Z,101561.36
2019-03-19T20:33:27.606Z,101564.14
2019-03-19T20:38:31.067Z,101571.08
2019-03-19T20:43:34.520Z,101578.81
2019-03-19T20:48:37.977Z,101581.78
2019-03-19T20:53:41.432Z,101585.33
2019-03-19T20:58:44.894Z,101589.31
2019-03-19T21:03:48.363Z,101572.01
2019-03-19T21:08:51.817Z,101572.01
2019-03-19T21:13:55.272Z,101592.85
2019-03-19T21:18:58.734Z,101597.02
2019-03-19T21:24:02.195Z,101605.12
2019-03-19T21:29:05.648Z,101618.20
2019-03-19T21:34:09.104Z,101619.16
2019-03-19T21:39:12.640Z,101625.68
2019-03-19T21:44:16.092Z,101633.20
2019-03-19T21:49:19.556Z,101629.25
2019-03-19T21:54:23.009Z,101629.03
2019-03-19T21:59:26.465Z,101631.57
2019-03-19T22:04:29.921Z,101641.06
2019-03-19T22:09:33.376Z,101640.06
2019-03-19T22:14:36.833Z,101646.41
2019-03-19T22:19:40.316Z,101647.00
2019-03-19T22:24:43.748Z,101647.41
2019-03-19T22:29:47.210Z,101649.97
2019-03-19T22:34:50.664Z,101651.94
2019-03-19T22:39:54.123Z,101654.13
2019-03-19T22:44:57.581Z,101663.63
2019-03-19T22:50:01.039Z,101661.44
2019-03-19T22:55:06.339Z,101671.73
2019-03-19T23:00:16.197Z,101665.22
2019-03-19T23:05:19.656Z,101665.39
2019-03-19T23:10:23.180Z,101673.71
2019-03-19T23:15:26.716Z,101683.20
2019-03-19T23:20:30.180Z,101684.59
2019-03-19T23:25:33.642Z,101687.95
2019-03-19T23:30:37.102Z,101693.50
2019-03-19T23:35:40.567Z,101696.86
2019-03-19T23:40:44.021Z,101692.70
2019-03-19T23:45:47.485Z,101695.27
2019-03-19T23:50:50.945Z,101705.98
2019-03-19T23:55:54.402Z,101709.72
